createdAt,value
2019-04-16T00:02:36.006Z,97704.00
2019-04-16T00:05:32.221Z,97700.00
2019-04-16T00:08:26.026Z,97699.00
2019-04-16T00:11:03.404Z,97699.00
2019-04-16T00:13:41.684Z,97698.00
2019-04-16T00:16:13.755Z,97690.00
2019-04-16T00:18:56.731Z,97691.00
2019-04-16T00:21:38.470Z,97686.00
2019-04-16T00:24:24.124Z,97693.00
2019-04-16T00:26:59.367Z,97677.00
2019-04-16T00:29:32.631Z,97681.00
2019-04-16T00:32:08.135Z,97676.00
2019-04-16T00:34:38.765Z,97670.00
2019-04-16T00:37:10.158Z,97663.00
2019-04-16T00:39:41.513Z,97662.00
2019-04-16T00:42:12.900Z,97663.00
2019-04-16T00:44:44.244Z,97675.00
2019-04-16T00:47:15.600Z,97663.00
2019-04-16T00:49:46.960Z,97671.00
2019-04-16T00:52:18.344Z,97673.00
2019-04-16T00:54:49.701Z,97671.00
2019-04-16T00:57:21.058Z,97677.00
2019-04-16T00:59:56.082Z,97667.00
2019-04-16T01:02:25.720Z,97670.00
2019-04-16T01:04:57.074Z,97660.00
2019-04-16T01:07:28.460Z,97664.00
2019-04-16T01:09:59.820Z,97655.00
2019-04-16T01:12:31.196Z,97643.00
2019-04-16T01:15:02.569Z,97647.00
2019-04-16T01:17:36.095Z,97660.00
2019-04-16T01:20:11.664Z,97663.00
2019-04-16T01:22:40.989Z,97660.00
2019-04-16T01:25:12.342Z,97657.00
2019-04-16T01:27:47.922Z,97654.00
2019-04-16T01:30:27.735Z,97671.00
2019-04-16T01:33:18.027Z,97668.00
2019-04-16T01:35:59.114Z,97665.00
2019-04-16T01:38:36.000Z,97648.00
2019-04-16T01:41:10.268Z,97655.00
2019-04-16T01:43:41.599Z,97659.00
2019-04-16T01:46:12.975Z,97654.00
2019-04-16T01:48:44.305Z,97660.00
2019-04-16T01:51:16.256Z,97657.00
2019-04-16T01:53:49.400Z,97673.00
2019-04-16T01:56:20.770Z,97674.00
2019-04-16T01:58:52.143Z,97674.00
2019-04-16T02:01:23.519Z,97669.00
2019-04-16T02:03:54.824Z,97667.00
2019-04-16T02:06:26.660Z,97672.00
2019-04-16T02:09:01.817Z,97670.00
2019-04-16T02:11:31.063Z,97673.00
2019-04-16T02:14:02.687Z,97683.00
2019-04-16T02:16:34.111Z,97676.00
2019-04-16T02:19:05.463Z,97667.00
2019-04-16T02:21:38.988Z,97687.00
2019-04-16T02:24:09.911Z,97683.00
2019-04-16T02:26:41.259Z,97674.00
2019-04-16T02:29:12.616Z,97685.00
2019-04-16T02:31:47.888Z,97686.00
2019-04-16T02:34:17.030Z,97695.00
2019-04-16T02:36:48.373Z,97686.00
2019-04-16T02:39:25.514Z,97705.00
2019-04-16T02:41:56.755Z,97687.00
2019-04-16T02:44:25.984Z,97698.00
2019-04-16T02:47:05.382Z,97696.00
2019-04-16T02:49:31.426Z,97684.00
2019-04-16T02:52:21.723Z,97686.00
2019-04-16T02:55:11.341Z,97678.00
2019-04-16T02:58:05.475Z,97680.00
2019-04-16T03:01:01.728Z,97687.00
2019-04-16T03:03:39.012Z,97687.00
2019-04-16T03:06:10.397Z,97694.00
2019-04-16T03:08:41.768Z,97696.00
2019-04-16T03:11:16.246Z,97683.00
2019-04-16T03:13:46.355Z,97694.00
2019-04-16T03:16:37.903Z,97687.00
2019-04-16T03:19:13.009Z,97674.00
2019-04-16T03:21:44.394Z,97682.00
2019-04-16T03:24:15.802Z,97674.00
2019-04-16T03:26:47.562Z,97678.00
2019-04-16T03:29:20.192Z,97681.00
2019-04-16T03:31:57.615Z,97683.00
2019-04-16T03:34:24.611Z,97677.00
2019-04-16T03:36:58.526Z,97675.00
2019-04-16T03:39:29.068Z,97687.00
2019-04-16T03:42:00.416Z,97687.00
2019-04-16T03:44:33.482Z,97676.00
2019-04-16T03:47:04.953Z,97670.00
2019-04-16T03:49:36.353Z,97674.00
2019-04-16T03:52:08.808Z,97667.00
2019-04-16T03:54:40.905Z,97674.00
2019-04-16T03:57:12.284Z,97671.00
2019-04-16T03:59:43.625Z,97675.00
2019-04-16T04:02:18.919Z,97659.00
2019-04-16T04:04:48.203Z,97664.00
2019-04-16T04:07:19.594Z,97665.00
2019-04-16T04:09:51.449Z,97665.00
2019-04-16T04:12:24.016Z,97669.00
2019-04-16T04:14:55.399Z,97679.00
2019-04-16T04:17:27.418Z,97674.00
2019-04-16T04:19:58.778Z,97682.00
2019-04-16T04:22:30.176Z,97682.00
2019-04-16T04:25:04.490Z,97681.00
2019-04-16T04:27:35.998Z,97679.00
2019-04-16T04:30:08.065Z,97684.00
2019-04-16T04:32:39.490Z,97683.00
2019-04-16T04:35:10.937Z,97695.00
2019-04-16T04:37:42.360Z,97698.00
2019-04-16T04:40:16.142Z,97710.00
2019-04-16T04:42:47.017Z,97693.00
2019-04-16T04:45:18.394Z,97703.00
2019-04-16T04:47:51.710Z,97703.00
2019-04-16T04:50:22.870Z,97687.00
2019-04-16T04:52:57.010Z,97691.00
2019-04-16T04:55:28.380Z,97709.00
2019-04-16T04:58:02.454Z,97700.00
2019-04-16T05:00:32.854Z,97699.00
2019-04-16T05:03:04.262Z,97707.00
2019-04-16T05:05:46.298Z,97720.00
2019-04-16T05:08:18.652Z,97705.00
2019-04-16T05:10:58.576Z,97700.00
2019-04-16T05:13:25.117Z,97713.00
2019-04-16T05:15:58.396Z,97711.00
2019-04-16T05:18:29.236Z,97713.00
2019-04-16T05:21:00.601Z,97703.00
2019-04-16T05:23:31.992Z,97722.00
2019-04-16T05:26:04.845Z,97713.00
2019-04-16T05:28:44.448Z,97713.00
2019-04-16T05:31:12.744Z,97706.00
2019-04-16T05:33:44.077Z,97715.00
2019-04-16T05:36:15.751Z,97724.00
2019-04-16T05:38:47.142Z,97718.00
2019-04-16T05:41:21.976Z,97706.00
2019-04-16T05:43:51.599Z,97717.00
2019-04-16T05:46:22.965Z,97722.00
2019-04-16T05:48:54.676Z,97717.00
2019-04-16T05:51:28.510Z,97718.00
2019-04-16T05:54:03.141Z,97731.00
2019-04-16T05:56:42.164Z,97726.00
2019-04-16T05:59:13.522Z,97723.00
2019-04-16T06:01:53.548Z,97710.00
2019-04-16T06:04:26.002Z,97712.00
2019-04-16T06:07:02.889Z,97707.00
2019-04-16T06:09:31.086Z,97720.00
2019-04-16T06:12:02.473Z,97718.00
2019-04-16T06:15:01.624Z,97709.00
2019-04-16T06:17:51.971Z,97711.00
2019-04-16T06:20:32.891Z,97712.00
2019-04-16T06:23:19.918Z,97722.00
2019-04-16T06:26:17.142Z,97712.00
2019-04-16T06:29:10.677Z,97709.00
2019-04-16T06:31:59.951Z,97713.00
2019-04-16T06:34:36.659Z,97707.00
2019-04-16T06:37:23.294Z,97700.00
2019-04-16T06:40:32.885Z,97696.00
2019-04-16T06:43:17.675Z,97707.00
2019-04-16T06:46:08.365Z,97704.00
2019-04-16T06:48:55.029Z,97709.00
2019-04-16T06:51:54.495Z,97707.00
2019-04-16T06:54:39.027Z,97706.00
2019-04-16T06:57:28.173Z,97697.00
2019-04-16T07:00:21.400Z,97713.00
2019-04-16T07:03:17.885Z,97698.00
2019-04-16T07:06:07.055Z,97706.00
2019-04-16T07:09:01.379Z,97695.00
2019-04-16T07:11:34.513Z,97697.00
2019-04-16T07:14:06.271Z,97696.00
2019-04-16T07:16:37.653Z,97701.00
2019-04-16T07:19:11.257Z,97684.00
2019-04-16T07:21:42.229Z,97686.00
2019-04-16T07:24:13.640Z,97694.00
2019-04-16T07:26:47.830Z,97693.00
2019-04-16T07:29:24.027Z,97701.00
2019-04-16T07:32:17.383Z,97703.00
2019-04-16T07:34:59.549Z,97695.00
2019-04-16T07:37:43.867Z,97702.00
2019-04-16T07:40:46.263Z,97693.00
2019-04-16T07:43:45.374Z,97693.00
2019-04-16T07:46:38.702Z,97689.00
2019-04-16T07:49:34.976Z,97686.00
2019-04-16T07:52:39.056Z,97696.00
2019-04-16T07:55:19.601Z,97691.00
2019-04-16T07:57:51.035Z,97694.00
2019-04-16T08:00:22.567Z,97689.00
2019-04-16T08:02:54.690Z,97699.00
2019-04-16T08:05:27.984Z,97691.00
2019-04-16T08:07:59.396Z,97685.00
2019-04-16T08:10:30.811Z,97683.00
2019-04-16T08:13:14.189Z,97695.00
2019-04-16T08:15:45.683Z,97684.00
2019-04-16T08:18:17.200Z,97681.00
2019-04-16T08:21:00.550Z,97691.00
2019-04-16T08:23:39.786Z,97696.00
2019-04-16T08:26:13.449Z,97688.00
2019-04-16T08:28:44.261Z,97707.00
2019-04-16T08:31:18.749Z,97695.00
2019-04-16T08:33:50.232Z,97689.00
2019-04-16T08:36:21.671Z,97691.00
2019-04-16T08:38:53.041Z,97696.00
2019-04-16T08:41:24.622Z,97707.00
2019-04-16T08:43:56.034Z,97706.00
2019-04-16T08:46:28.331Z,97697.00
2019-04-16T08:48:59.929Z,97695.00
2019-04-16T08:51:36.962Z,97705.00
2019-04-16T08:54:04.783Z,97702.00
2019-04-16T08:56:37.286Z,97688.00
2019-04-16T08:59:10.049Z,97700.00
2019-04-16T09:01:41.898Z,97698.00
2019-04-16T09:04:13.356Z,97700.00
2019-04-16T09:06:46.322Z,97689.00
2019-04-16T09:09:28.450Z,97689.00
2019-04-16T09:12:08.834Z,97694.00
2019-04-16T09:14:42.710Z,97693.00
2019-04-16T09:17:17.442Z,97687.00
2019-04-16T09:20:09.661Z,97684.00
2019-04-16T09:22:48.982Z,97681.00
2019-04-16T09:25:25.892Z,97677.00
2019-04-16T09:28:07.289Z,97676.00
2019-04-16T09:30:58.772Z,97668.00
2019-04-16T09:33:50.196Z,97674.00
2019-04-16T09:36:30.481Z,97669.00
2019-04-16T09:39:08.030Z,97673.00
2019-04-16T09:41:42.111Z,97676.00
2019-04-16T09:44:13.556Z,97670.00
2019-04-16T09:46:52.505Z,97660.00
2019-04-16T09:49:18.066Z,97659.00
2019-04-16T09:51:51.002Z,97666.00
2019-04-16T09:54:22.717Z,97665.00
2019-04-16T09:56:56.835Z,97664.00
2019-04-16T09:59:35.294Z,97661.00
2019-04-16T10:02:28.933Z,97663.00
2019-04-16T10:05:00.338Z,97668.00
2019-04-16T10:07:31.742Z,97666.00
2019-04-16T10:10:03.346Z,97662.00
2019-04-16T10:12:34.803Z,97657.00
2019-04-16T10:15:08.299Z,97669.00
2019-04-16T10:17:39.676Z,97664.00
2019-04-16T10:20:11.262Z,97646.00
2019-04-16T10:22:42.735Z,97658.00
2019-04-16T10:25:15.316Z,97659.00
2019-04-16T10:27:52.637Z,97664.00
2019-04-16T10:30:38.622Z,97647.00
2019-04-16T10:33:10.055Z,97648.00
2019-04-16T10:35:41.482Z,97648.00
2019-04-16T10:38:31.698Z,97663.00
2019-04-16T10:41:09.699Z,97640.00
2019-04-16T10:44:03.333Z,97631.00
2019-04-16T10:46:41.772Z,97630.00
2019-04-16T10:49:35.703Z,97637.00
2019-04-16T10:52:22.445Z,97643.00
2019-04-16T10:54:58.968Z,97643.00
2019-04-16T10:57:58.640Z,97624.00
2019-04-16T11:00:52.507Z,97645.00
2019-04-16T11:03:54.863Z,97628.00
2019-04-16T11:06:45.280Z,97638.00
2019-04-16T11:09:16.697Z,97636.00
2019-04-16T11:11:48.349Z,97627.00
2019-04-16T11:14:19.874Z,97634.00
2019-04-16T11:16:52.152Z,97624.00
2019-04-16T11:19:24.456Z,97626.00
2019-04-16T11:21:55.839Z,97629.00
2019-04-16T11:24:27.294Z,97630.00
2019-04-16T11:26:58.702Z,97629.00
2019-04-16T11:29:31.384Z,97621.00
2019-04-16T11:32:03.905Z,97623.00
2019-04-16T11:34:35.320Z,97626.00
2019-04-16T11:37:08.168Z,97615.00
2019-04-16T11:39:39.858Z,97624.00
2019-04-16T11:42:11.416Z,97629.00
2019-04-16T11:44:42.746Z,97619.00
2019-04-16T11:47:14.250Z,97613.00
2019-04-16T11:49:45.649Z,97616.00
2019-04-16T11:52:17.014Z,97614.00
2019-04-16T11:54:48.396Z,97614.00
2019-04-16T11:57:19.756Z,97610.00
2019-04-16T12:00:05.783Z,97615.00
2019-04-16T12:02:28.739Z,97605.00
2019-04-16T12:05:24.465Z,97610.00
2019-04-16T12:08:30.097Z,97609.00
2019-04-16T12:11:23.127Z,97609.00
2019-04-16T12:14:32.315Z,97599.00
2019-04-16T12:17:08.066Z,97608.00
2019-04-16T12:20:04.520Z,97606.00
2019-04-16T12:22:49.427Z,97611.00
2019-04-16T12:25:45.658Z,97609.00
2019-04-16T12:28:43.313Z,97595.00
2019-04-16T12:31:40.295Z,97596.00
2019-04-16T12:34:21.972Z,97600.00
2019-04-16T12:37:21.312Z,97600.00
2019-04-16T12:40:10.388Z,97592.00
2019-04-16T12:43:01.244Z,97593.00
2019-04-16T12:45:47.014Z,97588.00
2019-04-16T12:48:52.466Z,97598.00
2019-04-16T12:51:32.127Z,97597.00
2019-04-16T12:54:09.083Z,97590.00
2019-04-16T12:57:10.635Z,97585.00
2019-04-16T13:00:01.896Z,97594.00
2019-04-16T13:02:45.621Z,97597.00
2019-04-16T13:05:22.867Z,97590.00
2019-04-16T13:08:13.138Z,97580.00
2019-04-16T13:11:08.866Z,97581.00
2019-04-16T13:14:10.661Z,97581.00
2019-04-16T13:16:59.738Z,97577.00
2019-04-16T13:20:05.418Z,97585.00
2019-04-16T13:22:40.477Z,97592.00
2019-04-16T13:25:20.233Z,97589.00
2019-04-16T13:27:52.303Z,97591.00
2019-04-16T13:30:23.687Z,97585.00
2019-04-16T13:32:55.041Z,97587.00
2019-04-16T13:35:28.514Z,97577.00
2019-04-16T13:37:59.873Z,97589.00
2019-04-16T13:40:31.277Z,97580.00
2019-04-16T13:43:05.884Z,97572.00
2019-04-16T13:45:37.754Z,97573.00
2019-04-16T13:48:27.260Z,97567.00
2019-04-16T13:51:02.898Z,97570.00
2019-04-16T13:53:42.474Z,97581.00
2019-04-16T13:56:22.971Z,97580.00
2019-04-16T13:59:03.104Z,97569.00
2019-04-16T14:01:39.305Z,97569.00
2019-04-16T14:04:10.975Z,97563.00
2019-04-16T14:06:45.975Z,97570.00
2019-04-16T14:09:15.462Z,97558.00
2019-04-16T14:11:51.007Z,97563.00
2019-04-16T14:14:22.604Z,97559.00
2019-04-16T14:16:52.917Z,97558.00
2019-04-16T14:19:24.272Z,97570.00
2019-04-16T14:21:55.692Z,97560.00
2019-04-16T14:24:27.031Z,97568.00
2019-04-16T14:26:58.666Z,97568.00
2019-04-16T14:29:30.024Z,97565.00
2019-04-16T14:32:02.428Z,97560.00
2019-04-16T14:34:55.708Z,97556.00
2019-04-16T14:37:27.152Z,97568.00
2019-04-16T14:40:13.042Z,97574.00
2019-04-16T14:42:44.420Z,97582.00
2019-04-16T14:45:22.526Z,97568.00
2019-04-16T14:47:54.914Z,97580.00
2019-04-16T14:50:26.404Z,97565.00
2019-04-16T14:52:57.876Z,97564.00
2019-04-16T14:55:35.732Z,97569.00
2019-04-16T14:58:44.495Z,97576.00
2019-04-16T15:01:49.832Z,97586.00
2019-04-16T15:04:49.463Z,97576.00
2019-04-16T15:07:39.761Z,97580.00
2019-04-16T15:10:48.562Z,97580.00
2019-04-16T15:13:30.477Z,97579.00
2019-04-16T15:16:21.297Z,97581.00
2019-04-16T15:19:09.508Z,97577.00
2019-04-16T15:21:58.601Z,97584.00
2019-04-16T15:24:44.918Z,97593.00
2019-04-16T15:27:44.451Z,97590.00
2019-04-16T15:30:33.411Z,97581.00
2019-04-16T15:33:29.771Z,97587.00
2019-04-16T15:36:18.086Z,97582.00
2019-04-16T15:38:53.186Z,97591.00
2019-04-16T15:41:33.368Z,97601.00
2019-04-16T15:44:12.568Z,97593.00
2019-04-16T15:46:57.579Z,97594.00
2019-04-16T15:49:45.400Z,97591.00
2019-04-16T15:52:27.204Z,97600.00
2019-04-16T15:55:26.656Z,97599.00
2019-04-16T15:58:19.884Z,97598.00
2019-04-16T16:01:19.492Z,97591.00
2019-04-16T16:04:08.716Z,97597.00
2019-04-16T16:06:53.238Z,97596.00
2019-04-16T16:09:28.314Z,97592.00
2019-04-16T16:12:11.579Z,97597.00
2019-04-16T16:14:42.894Z,97594.00
2019-04-16T16:17:15.414Z,97596.00
2019-04-16T16:19:46.790Z,97590.00
2019-04-16T16:22:18.240Z,97600.00
2019-04-16T16:24:49.615Z,97593.00
2019-04-16T16:27:21.046Z,97599.00
2019-04-16T16:29:52.448Z,97607.00
2019-04-16T16:32:23.803Z,97603.00
2019-04-16T16:34:55.558Z,97610.00
2019-04-16T16:37:26.940Z,97602.00
2019-04-16T16:39:58.287Z,97612.00
2019-04-16T16:42:29.700Z,97606.00
2019-04-16T16:45:01.981Z,97609.00
2019-04-16T16:47:39.817Z,97614.00
2019-04-16T16:50:16.663Z,97611.00
2019-04-16T16:53:04.274Z,97611.00
2019-04-16T16:55:38.968Z,97611.00
2019-04-16T16:58:30.803Z,97609.00
2019-04-16T17:01:19.711Z,97620.00
2019-04-16T17:03:55.619Z,97608.00
2019-04-16T17:06:27.055Z,97618.00
2019-04-16T17:08:59.473Z,97617.00
2019-04-16T17:11:30.950Z,97621.00
2019-04-16T17:14:03.149Z,97625.00
2019-04-16T17:16:34.901Z,97616.00
2019-04-16T17:19:06.312Z,97618.00
2019-04-16T17:21:37.669Z,97617.00
2019-04-16T17:24:09.194Z,97635.00
2019-04-16T17:26:40.574Z,97619.00
2019-04-16T17:29:11.953Z,97624.00
2019-04-16T17:31:43.374Z,97629.00
2019-04-16T17:34:14.771Z,97624.00
2019-04-16T17:36:46.215Z,97638.00
2019-04-16T17:39:32.564Z,97629.00
2019-04-16T17:42:05.335Z,97626.00
2019-04-16T17:44:51.914Z,97643.00
2019-04-16T17:47:41.318Z,97652.00
2019-04-16T17:50:32.784Z,97659.00
2019-04-16T17:53:22.659Z,97649.00
2019-04-16T17:56:11.582Z,97654.00
2019-04-16T17:58:55.705Z,97668.00
2019-04-16T18:01:44.654Z,97667.00
2019-04-16T18:04:26.677Z,97671.00
2019-04-16T18:07:13.709Z,97675.00
2019-04-16T18:10:00.145Z,97673.00
2019-04-16T18:12:55.056Z,97682.00
2019-04-16T18:15:36.208Z,97685.00
2019-04-16T18:18:15.765Z,97689.00
2019-04-16T18:20:58.867Z,97703.00
2019-04-16T18:23:50.561Z,97691.00
2019-04-16T18:26:36.772Z,97697.00
2019-04-16T18:29:13.710Z,97713.00
2019-04-16T18:31:48.779Z,97715.00
2019-04-16T18:34:40.205Z,97706.00
2019-04-16T18:37:31.188Z,97709.00
2019-04-16T18:40:30.656Z,97702.00
2019-04-16T18:43:33.069Z,97726.00
2019-04-16T18:46:26.983Z,97714.00
2019-04-16T18:49:03.546Z,97723.00
2019-04-16T18:51:34.984Z,97722.00
2019-04-16T18:54:06.547Z,97722.00
2019-04-16T18:56:37.908Z,97737.00
2019-04-16T18:59:09.506Z,97736.00
2019-04-16T19:01:43.003Z,97751.00
2019-04-16T19:04:14.447Z,97745.00
2019-04-16T19:06:47.115Z,97741.00
2019-04-16T19:09:21.064Z,97755.00
2019-04-16T19:11:52.596Z,97746.00
2019-04-16T19:14:24.025Z,97753.00
2019-04-16T19:16:55.446Z,97758.00
2019-04-16T19:19:26.846Z,97770.00
2019-04-16T19:21:58.539Z,97772.00
2019-04-16T19:24:29.919Z,97766.00
2019-04-16T19:27:01.469Z,97769.00
2019-04-16T19:29:33.018Z,97774.00
2019-04-16T19:32:05.867Z,97782.00
2019-04-16T19:34:40.990Z,97790.00
2019-04-16T19:37:10.568Z,97780.00
2019-04-16T19:39:43.715Z,97782.00
2019-04-16T19:42:15.200Z,97787.00
2019-04-16T19:44:46.605Z,97792.00
2019-04-16T19:47:23.275Z,97784.00
2019-04-16T19:49:53.854Z,97792.00
2019-04-16T19:52:25.303Z,97791.00
2019-04-16T19:54:56.769Z,97786.00
2019-04-16T19:57:28.426Z,97785.00
2019-04-16T19:59:59.876Z,97806.00
2019-04-16T20:02:33.329Z,97795.00
2019-04-16T20:05:04.587Z,97801.00
2019-04-16T20:07:37.124Z,97792.00
2019-04-16T20:10:08.755Z,97800.00
2019-04-16T20:12:40.255Z,97809.00
2019-04-16T20:15:11.766Z,97794.00
2019-04-16T20:17:43.137Z,97804.00
2019-04-16T20:20:14.569Z,97793.00
2019-04-16T20:22:47.450Z,97801.00
2019-04-16T20:25:18.858Z,97813.00
2019-04-16T20:27:50.414Z,97805.00
2019-04-16T20:30:24.243Z,97806.00
2019-04-16T20:32:55.284Z,97802.00
2019-04-16T20:35:26.746Z,97796.00
2019-04-16T20:37:58.137Z,97810.00
2019-04-16T20:40:29.484Z,97808.00
2019-04-16T20:43:01.185Z,97813.00
2019-04-16T20:45:32.599Z,97812.00
2019-04-16T20:48:04.151Z,97806.00
2019-04-16T20:50:35.607Z,97817.00
2019-04-16T20:53:08.426Z,97807.00
2019-04-16T20:55:40.096Z,97803.00
2019-04-16T20:58:14.637Z,97803.00
2019-04-16T21:00:47.405Z,97802.00
2019-04-16T21:03:22.601Z,97817.00
2019-04-16T21:05:59.165Z,97804.00
2019-04-16T21:08:26.005Z,97803.00
2019-04-16T21:10:59.844Z,97827.00
2019-04-16T21:13:32.525Z,97829.00
2019-04-16T21:16:04.018Z,97811.00
2019-04-16T21:18:35.450Z,97817.00
2019-04-16T21:21:06.861Z,97814.00
2019-04-16T21:23:38.804Z,97825.00
2019-04-16T21:26:10.147Z,97819.00
2019-04-16T21:28:53.127Z,97819.00
2019-04-16T21:31:31.209Z,97813.00
2019-04-16T21:34:13.494Z,97831.00
2019-04-16T21:37:09.620Z,97825.00
2019-04-16T21:39:51.389Z,97838.00
2019-04-16T21:42:21.060Z,97843.00
2019-04-16T21:44:52.441Z,97837.00
2019-04-16T21:47:24.591Z,97839.00
2019-04-16T21:49:57.182Z,97840.00
2019-04-16T21:52:28.546Z,97839.00
2019-04-16T21:55:04.035Z,97833.00
2019-04-16T21:57:33.100Z,97837.00
2019-04-16T22:00:07.962Z,97831.00
2019-04-16T22:02:41.403Z,97846.00
2019-04-16T22:05:16.737Z,97847.00
2019-04-16T22:07:45.839Z,97847.00
2019-04-16T22:10:17.228Z,97844.00
2019-04-16T22:12:48.749Z,97862.00
2019-04-16T22:15:25.167Z,97848.00
2019-04-16T22:17:53.396Z,97855.00
2019-04-16T22:20:24.786Z,97860.00
2019-04-16T22:22:56.126Z,97851.00
2019-04-16T22:25:27.807Z,97867.00
2019-04-16T22:28:00.107Z,97864.00
2019-04-16T22:30:31.577Z,97864.00
2019-04-16T22:33:06.444Z,97867.00
2019-04-16T22:35:36.214Z,97867.00
2019-04-16T22:38:12.976Z,97868.00
2019-04-16T22:40:59.630Z,97868.00
2019-04-16T22:44:05.449Z,97877.00
2019-04-16T22:46:40.742Z,97878.00
2019-04-16T22:49:12.126Z,97870.00
2019-04-16T22:51:44.096Z,97867.00
2019-04-16T22:54:17.669Z,97875.00
2019-04-16T22:57:05.861Z,97877.00
2019-04-16T22:59:39.405Z,97883.00
2019-04-16T23:02:25.010Z,97888.00
2019-04-16T23:04:58.398Z,97880.00
2019-04-16T23:07:30.451Z,97897.00
2019-04-16T23:10:01.949Z,97888.00
2019-04-16T23:12:33.280Z,97886.00
2019-04-16T23:15:05.948Z,97879.00
2019-04-16T23:17:37.333Z,97903.00
2019-04-16T23:20:09.526Z,97896.00
2019-04-16T23:22:43.637Z,97885.00
2019-04-16T23:25:13.922Z,97899.00
2019-04-16T23:27:45.314Z,97902.00
2019-04-16T23:30:18.458Z,97893.00
2019-04-16T23:32:49.742Z,97904.00
2019-04-16T23:35:24.819Z,97896.00
2019-04-16T23:37:58.330Z,97905.00
2019-04-16T23:40:27.266Z,97902.00
2019-04-16T23:43:18.736Z,97914.00
2019-04-16T23:46:21.123Z,97910.00
2019-04-16T23:49:16.534Z,97916.00
2019-04-16T23:52:01.822Z,97902.00
2019-04-16T23:54:36.356Z,97907.00
2019-04-16T23:57:12.397Z,97912.00
